ADDS METAR Data INFO
IDs: Format: Raw Decoded Include TAF

Data at: 0214 UTC 14 Dec 2017

KMLI 140152Z 33016G23KT 10SM OVC028 00/M07 A2974 RMK AO2 PK WND 30041/0100 SLP076 T00001067
KMLI 140133Z 32018G29KT 10SM OVC028 00/M06 A2972 RMK AO2 PK WND 30041/0100 T00001061
KMLI 140119Z 31022G34KT 10SM BKN030 OVC039 00/M06 A2972 RMK AO2 PK WND 30041/0100 PRESRR T00001061
KMLI 140109Z 32015G41KT 10SM BKN028 OVC037 01/M06 A2970 RMK AO2 PK WND 30041/0100 T00061061
KMLI 140052Z 31026G33KT 10SM SCT030 OVC038 01/M06 A2969 RMK AO2 PK WND 30037/0026 SLP059 T00111056
KMLI 132352Z 30024G35KT 10SM OVC025 02/M03 A2963 RMK AO2 PK WND 31040/2331 SLP039 T00221033 10083 20022 53051
KMLI 132252Z 31022G38KT 10SM OVC028 03/M03 A2957 RMK AO2 PK WND 31038/2249 SLP020 T00281033
KMLI 132152Z 31022G35KT 10SM OVC029 03/M02 A2953 RMK AO2 PK WND 30044/2137 SLP006 T00331017
KMLI 132052Z 30024G37KT 10SM OVC026 04/M02 A2948 RMK AO2 PK WND 30041/2035 SLP986 T00391017 53040
KMLI 131952Z 30025G41KT 10SM OVC027 04/M01 A2943 RMK AO2 PK WND 30048/1939 PRESRR SLP968 T00441011
KMLI 131852Z 28020G39KT 10SM BKN025 OVC029 06/01 A2937 RMK AO2 PK WND 28046/1808 SLP950 T00610011
KMLI 131845Z 29019G34KT 10SM BKN025 BKN029 OVC055 06/01 A2937 RMK AO2 PK WND 28046/1808 T00610006
KMLI 131752Z 29021G36KT 9SM FEW040 SCT047 OVC100 08/M01 A2936 RMK AO2 PK WND 31043/1740 SLP945 T00831006 10083 20000 56022
KMLI 131652Z 27019G26KT 10SM FEW090 SCT110 07/M03 A2936 RMK AO2 PK WND 27026/1651 SLP947 T00671028
KMLI 131552Z 25011G20KT 10SM CLR 04/M04 A2939 RMK AO2 SLP957 T00391039
KMLI 131452Z 24014KT 10SM CLR 02/M05 A2942 RMK AO2 SLP970 T00171050 56037
KMLI 131352Z 22012KT 10SM CLR 01/M06 A2945 RMK AO2 SLP978 T00061056
KMLI 131252Z 21014G20KT 10SM FEW080 00/M06 A2948 RMK AO2 SLP990 T00001061
KMLI 131152Z 20010G21KT 10SM CLR 00/M07 A2953 RMK AO2 SLP007 T00001067 10000 21022 56064
KMLI 131052Z AUTO 19008KT 10SM CLR M01/M07 A2959 RMK AO2 SLP026 T10061072
KMLI 130952Z AUTO VRB05KT 10SM CLR M01/M08 A2966 RMK AO2 SLP051 T10111078
KMLI 130852Z AUTO 19007KT 10SM FEW080 M01/M09 A2973 RMK AO2 SLP073 T10111089 56050
KMLI 130752Z AUTO 21008KT 10SM BKN080 M02/M11 A2978 RMK AO2 SLP090 T10171106
KMLI 130652Z AUTO 21005KT 10SM OVC085 M02/M12 A2982 RMK AO2 SLP106 T10221122
KMLI 130552Z AUTO 22006KT 10SM OVC095 M02/M14 A2988 RMK AO2 SLP125 T10221139 11022 21050 410061078 58037
KMLI 130452Z AUTO 21005KT 10SM OVC100 M03/M15 A2991 RMK AO2 SLP137 T10281150
KMLI 130352Z 00000KT 10SM BKN090 M05/M14 A2996 RMK AO2 SLP154 T10501144
KMLI 130252Z 23004KT 10SM CLR M04/M15 A2999 RMK AO2 SLP164 T10441150 58022
KMLI 130152Z 23008KT 10SM OVC055 M03/M14 A3001 RMK AO2 SLP172 T10281144
KMLI 130052Z 20003KT 10SM BKN060 OVC075 M03/M14 A3004 RMK AO2 SLP183 T10281144
KMLI 122352Z 24005KT 10SM OVC050 M03/M15 A3006 RMK AO2 SLP187 T10281150 11011 21033 58014
KMLI 122252Z 27006KT 10SM BKN075 BKN110 M03/M16 A3007 RMK AO2 SLP192 T10281156
KMLI 122152Z 29009KT 10SM CLR M02/M16 A3010 RMK AO2 SLP199 T10221161
KMLI 122052Z 29009KT 10SM CLR M02/M17 A3010 RMK AO2 SLP200 T10171167 56022
KMLI 121952Z 30012KT 10SM CLR M02/M15 A3011 RMK AO2 SLP205 T10171150
KMLI 121852Z 31011KT 10SM CLR M02/M14 A3013 RMK AO2 SLP210 T10221144
KMLI 121752Z 28011KT 10SM CLR M03/M13 A3016 RMK AO2 SLP221 T10331128 11033 21078 58012
KMLI 121652Z 31013G19KT 10SM CLR M05/M12 A3021 RMK AO2 SLP236 T10501122
KMLI 121552Z 29013KT 10SM CLR M06/M11 A3021 RMK AO2 SLP236 T10561111
KMLI 121452Z 32013KT 10SM FEW017 M07/M11 A3020 RMK AO2 SLP234 T10671111 51011